Tropical Cyclones
[Index]
Main Index Home Page Stock Weather Photos Extreme Storms Discussion Storm News and Storm Chasing Reports Tropical Cyclones / Hurricanes / Typhoons Weather Data and Links Wild Fires / Bushfires Weather Observation Techniques Weather Picture Catalogue Tornado Pictures and Reports Stock Video Footage and DVDs for sale
Season 1999-2000 Tropical Cyclone MONA Track Map
Season 1999-2000 Summaries (Operational Data): [AU] [SIO] [SPAC] [SH]
<<- Previous TC | 1999-2000 Season | Next TC ->>

click for intensity scale information  Lat/long Grid: Show Hide

 Date Labels: Show Hide

Operational Tropical Cyclone Data : JTWC Advisories

Name: MONA
Number: 0019

07 Mar 2000 06:00 UTC to 13 Mar 2000 05:00 UTC

    date/time    lat    long     hPa   cat  kts
2000-03-07 06   17.0   172.0W   1002         20          
2000-03-07 18   18.6   174.4W    998         25          
2000-03-08 00   19.0   175.0W    996         30          
2000-03-08 06   19.5   175.0W    996         30          
2000-03-08 12   19.9   175.2W    992    1    40          
2000-03-08 18   20.8   175.6W    980    2    50          
2000-03-09 00   20.9   175.9W    975    2    60          
2000-03-09 06   21.3   175.9W    970    3    65          
2000-03-09 12   21.7   175.5W    970    3    65          
2000-03-09 18   22.7   175.5W    970    3    65          
2000-03-10 00   23.4   174.9W    970    3    65          
2000-03-10 06   24.2   173.2W    965    3    70          
2000-03-10 12   25.6   172.1W    965    3    70          
2000-03-10 18   27.0   172.0W    970    3    65          
2000-03-11 00   27.5   172.0W    975    2    60          
2000-03-11 06   28.8   172.5W    980    2    55          
2000-03-11 12   29.0   172.0W    984    2    50          
2000-03-11 17   31.0   172.0W    990    2    50          
2000-03-11 23   33.0   172.0W    992    2    50          
2000-03-12 05   34.0   171.0W    995    1    45          
2000-03-12 11   37.0   171.0W    992    1    35          
2000-03-12 17   40.0   170.0W    990    1    45          
2000-03-12 23   41.0   167.0W    990    1    45          
2000-03-13 05   43.0   163.5W    995    1    35          
Winds are 10-min average.

Tropical cyclone tracks developed by Michael Bath using operational warnings and advisories and Google Maps.


[Australian Severe Weather index] [Copyright Notice] [Email Contacts] [Search This Site] [Privacy Policy]
Document: tropical_cyclone_mona.htm Updated: 28 May 2013